Last 30 Days

O'Neill Sea Odyssey

Daily Data | America/Los_Angeles
as of 9/22/21 11:42 PM PDT
Date Daily Max Temp (°F) Time of Max Temp Daily Min Temp (°F) Time of Min Temp Daily Rain (In) Seasonal Rainfall (In) Wind Spd (mph) Daily Max Wind (mph) Time of Max Wind Max Wind Dir (°) Dew Pt (°F) Max RH (%) Min RH (%) Bat Volt Min Day (V)
9/21/21 75.2 1014 58.7 0024 0.00 0.04 5.9 18.1 1156 SW | 233 65.0 100 84 13.1
9/20/21 84.0 1747 53.2 0720 0.00 0.04 4.7 23.4 1419 SW | 216 63.2 100 28 13.1
9/19/21 80.1 1651 59.0 0100 0.00 0.04 5.0 21.7 1741 N | 351 60.9 100 20 13.1
9/18/21 64.4 1836 57.0 0318 0.00 0.04 6.5 23.6 1529 SW | 233 51.8 100 59 12.4
9/17/21 59.7 1555 55.0 0535 0.00 0.04 3.7 12.2 1840 SW | 218 49.0 87 61 13.2
9/16/21 58.7 1550 54.4 0357 0.00 0.04 3.4 10.5 1612 SW | 228 50.8 91 76 13.2
9/15/21 58.5 1221 54.4 0058 0.00 0.04 4.7 14.8 1521 SW | 226 52.6 100 78 13.2
9/14/21 60.1 0144 53.3 0703 0.00 0.04 4.0 11.0 1535 SW | 229 57.3 100 93 13.2
9/13/21 96.4 0304 24.6 0847 0.00 0.04 3.4 12.0 2008 ENE | 77 64.8 100 68 13.1
9/12/21 96.6 1801 40.4 1511 0.00 0.04 4.3 16.4 1340 SW | 229 63.4 100 85 12.4
9/11/21 68.4 1546 54.7 0635 0.00 0.04 4.5 19.8 1339 SW | 226 55.9 100 66 13.1
9/10/21 68.0 1647 56.7 0154 0.00 0.04 5.0 15.0 1155 SW | 222 56.9 100 67 13.1
9/9/21 66.2 1655 57.6 0432 0.00 0.04 5.6 20.2 1514 SW | 227 57.8 99 71 13.2
9/8/21 70.1 1702 57.2 0450 0.00 0.04 4.2 11.4 1412 SE | 140 58.1 100 68 13.1
9/7/21 62.5 1704 56.4 0518 0.00 0.04 4.5 16.0 1411 SW | 230 57.6 100 83 13.2
9/6/21 68.8 1526 53.5 0444 0.00 0.04 3.9 17.9 1341 SW | 221 56.1 99 66 13.1
9/5/21 70.2 1541 52.2 0448 0.00 0.04 4.3 16.0 1437 SW | 216 55.1 100 55 13.1
9/4/21 62.2 1435 53.5 0801 0.00 0.04 6.0 16.8 1211 SW | 221 54.6 100 80 13.2
9/3/21 61.6 1541 54.3 0718 0.00 0.04 6.6 21.7 1514 SW | 223 51.8 89 76 13.2
9/2/21 60.4 1700 56.3 0529 0.00 0.04 5.2 11.8 1508 SW | 228 50.6 81 69 13.2
9/1/21 61.1 1450 55.5 0517 0.00 0.04 5.4 16.4 1638 SW | 234 51.7 88 71 13.2
8/31/21 62.8 1322 56.1 0401 0.00 0.04 4.9 15.2 1715 SW | 234 54.5 97 73 13.2
8/30/21 66.0 1625 56.3 0717 0.00 0.04 4.5 15.6 1348 SW | 226 56.6 98 71 13.1
8/29/21 61.8 1648 56.4 0750 0.00 0.04 5.7 18.7 1506 SW | 227 57.4 98 88 13.2
8/28/21 63.1 1713 54.4 0649 0.00 0.04 4.6 11.6 1528 SW | 222 56.2 97 75 13.2
8/27/21 75.6 1520 52.4 0642 0.00 0.04 4.1 15.2 1225 SW | 221 55.7 97 54 13.1
8/26/21 67.9 1610 51.1 0608 0.00 0.04 4.2 11.4 2012 E | 82 53.9 94 66 13.1
8/25/21 63.3 0317 55.1 0317 0.00 0.04 5.4 20.4 1546 SW | 228 54.7 100 72 13.2
8/24/21 61.1 1357 56.4 0652 0.00 0.04 4.2 15.2 1659 SSW | 205 54.0 94 78 13.2
8/23/21 60.2 1449 54.9 0748 0.00 0.04 4.0 13.5 1525 SW | 228 53.0 92 78 13.2
Max 96.6 - 59.0 - 0.00 - 6.6 23.6 - - 65.0 100 93 13.2
Avg - - - - - - 4.7 - - - 56.0 - - -
Min 58.5 - 24.6 - 0.00 - 3.4 10.5 - - 49.0 81 20 12.4